Time,TemperatureF,DewpointF,PressureIn,WindDirection,WindDirectionDegrees,WindSpeedMPH,WindSpeedGustMPH,Humidity,HourlyPrecipIn,Conditions,Clouds,dailyrainin,SolarRadiationWatts/m^2,SoftwareType,DateUTC
2013-05-30 00:09:00,70.1,63.0,29.95,SSE,152,0.0,1.0,77,0.00,,,0.00,0,weatherlink.com 1.10,2013-05-30 04:09:00,
2013-05-30 00:24:00,69.7,62.0,29.95,SE,144,0.0,1.0,77,0.00,,,0.00,0,weatherlink.com 1.10,2013-05-30 04:24:00,
2013-05-30 00:39:00,69.5,62.0,29.95,SE,144,0.0,1.0,77,0.00,,,0.00,0,weatherlink.com 1.10,2013-05-30 04:39:00,
2013-05-30 00:54:00,69.2,62.0,29.95,SE,144,1.0,1.0,78,0.00,,,0.00,0,weatherlink.com 1.10,2013-05-30 04:54:00,
2013-05-30 01:09:00,68.8,62.0,29.95,SE,144,0.0,1.0,79,0.00,,,0.00,0,weatherlink.com 1.10,2013-05-30 05:09:00,
2013-05-30 01:24:00,68.6,62.0,29.96,East,90,0.0,1.0,79,0.00,,,0.00,0,weatherlink.com 1.10,2013-05-30 05:24:00,
2013-05-30 01:39:00,68.4,62.0,29.96,East,90,0.0,1.0,80,0.00,,,0.00,0,weatherlink.com 1.10,2013-05-30 05:39:00,
2013-05-30 01:54:00,68.0,62.0,29.97,East,90,0.0,1.0,81,0.00,,,0.00,0,weatherlink.com 1.10,2013-05-30 05:54:00,
2013-05-30 02:09:00,68.0,62.0,29.97,East,90,0.0,0.0,81,0.00,,,0.00,0,weatherlink.com 1.10,2013-05-30 06:09:00,
2013-05-30 02:24:00,67.9,62.0,29.98,SW,227,0.0,1.0,81,0.00,,,0.00,0,weatherlink.com 1.10,2013-05-30 06:24:00,
2013-05-30 02:39:00,68.0,62.0,29.97,ENE,71,0.0,2.0,82,0.00,,,0.00,0,weatherlink.com 1.10,2013-05-30 06:39:00,
2013-05-30 02:54:00,68.0,62.0,29.97,ENE,71,0.0,0.0,82,0.00,,,0.00,0,weatherlink.com 1.10,2013-05-30 06:54:00,
2013-05-30 03:09:00,67.9,62.0,29.97,NNE,26,0.0,1.0,82,0.00,,,0.00,0,weatherlink.com 1.10,2013-05-30 07:09:00,
2013-05-30 03:24:00,67.9,63.0,29.97,SW,218,1.0,2.0,83,0.00,,,0.00,0,weatherlink.com 1.10,2013-05-30 07:24:00,
2013-05-30 03:39:00,68.0,63.0,29.97,SW,220,1.0,1.0,83,0.00,,,0.00,0,weatherlink.com 1.10,2013-05-30 07:39:00,
2013-05-30 03:54:00,68.1,63.0,29.98,SE,132,0.0,1.0,83,0.00,,,0.00,0,weatherlink.com 1.10,2013-05-30 07:54:00,
2013-05-30 04:09:00,68.1,63.0,29.97,North,351,0.0,2.0,83,0.00,,,0.00,0,weatherlink.com 1.10,2013-05-30 08:09:00,
2013-05-30 04:24:00,68.0,63.0,29.97,NNE,33,0.0,2.0,84,0.00,,,0.00,0,weatherlink.com 1.10,2013-05-30 08:24:00,
2013-05-30 04:39:00,68.0,63.0,29.98,NNE,33,0.0,1.0,84,0.00,,,0.00,0,weatherlink.com 1.10,2013-05-30 08:39:00,
2013-05-30 04:54:00,67.8,63.0,29.98,NNE,33,0.0,2.0,84,0.00,,,0.00,0,weatherlink.com 1.10,2013-05-30 08:54:00,
2013-05-30 05:09:00,67.8,63.0,29.98,NNE,33,0.0,2.0,84,0.00,,,0.00,0,weatherlink.com 1.10,2013-05-30 09:09:00,
2013-05-30 05:24:00,67.6,63.0,29.98,NNE,33,0.0,1.0,85,0.00,,,0.00,0,weatherlink.com 1.10,2013-05-30 09:24:00,
2013-05-30 05:39:00,67.5,63.0,29.99,NNE,33,0.0,2.0,85,0.00,,,0.00,0,weatherlink.com 1.10,2013-05-30 09:39:00,
2013-05-30 05:54:00,67.3,63.0,29.99,NNE,33,0.0,1.0,85,0.00,,,0.00,0,weatherlink.com 1.10,2013-05-30 09:54:00,
2013-05-30 06:09:00,67.3,63.0,29.99,NNE,33,0.0,1.0,85,0.00,,,0.00,0,weatherlink.com 1.10,2013-05-30 10:09:00,
2013-05-30 06:24:00,67.2,63.0,29.99,NNE,33,0.0,1.0,85,0.00,,,0.00,0,weatherlink.com 1.10,2013-05-30 10:24:00,
2013-05-30 06:39:00,67.0,63.0,30.00,NNE,33,0.0,1.0,86,0.00,,,0.00,9,weatherlink.com 1.10,2013-05-30 10:39:00,
2013-05-30 06:54:00,67.1,63.0,30.00,NNE,30,0.0,3.0,86,0.00,,,0.00,19,weatherlink.com 1.10,2013-05-30 10:54:00,
2013-05-30 07:09:00,67.5,63.0,30.01,NNE,30,0.0,1.0,85,0.00,,,0.00,26,weatherlink.com 1.10,2013-05-30 11:09:00,
2013-05-30 07:24:00,68.0,63.0,30.01,West,271,0.0,2.0,84,0.00,,,0.00,28,weatherlink.com 1.10,2013-05-30 11:24:00,
2013-05-30 07:39:00,68.4,63.0,30.02,South,180,0.0,3.0,84,0.00,,,0.00,30,weatherlink.com 1.10,2013-05-30 11:39:00,
2013-05-30 07:54:00,68.7,63.0,30.02,SW,228,1.0,3.0,83,0.00,,,0.00,39,weatherlink.com 1.10,2013-05-30 11:54:00,
2013-05-30 08:09:00,69.2,64.0,30.02,SSW,209,0.0,4.0,83,0.00,,,0.00,44,weatherlink.com 1.10,2013-05-30 12:09:00,
2013-05-30 08:24:00,70.0,64.0,30.03,WSW,242,1.0,4.0,82,0.00,,,0.00,49,weatherlink.com 1.10,2013-05-30 12:24:00,
2013-05-30 08:39:00,70.7,65.0,30.03,South,181,1.0,6.0,81,0.00,,,0.00,54,weatherlink.com 1.10,2013-05-30 12:39:00,
2013-05-30 08:54:00,71.3,65.0,30.03,South,191,2.0,4.0,81,0.00,,,0.00,74,weatherlink.com 1.10,2013-05-30 12:54:00,
2013-05-30 09:09:00,72.0,66.0,30.03,SW,234,4.0,6.0,80,0.00,,,0.00,58,weatherlink.com 1.10,2013-05-30 13:09:00,
2013-05-30 09:24:00,72.7,66.0,30.03,SW,216,2.0,5.0,79,0.00,,,0.00,63,weatherlink.com 1.10,2013-05-30 13:24:00,
2013-05-30 09:40:00,73.3,66.0,30.03,North,360,1.0,6.0,79,0.00,,,0.00,72,weatherlink.com 1.10,2013-05-30 13:40:00,
2013-05-30 09:55:00,74.2,67.0,30.03,South,174,1.0,4.0,78,0.00,,,0.00,179,weatherlink.com 1.10,2013-05-30 13:55:00,
2013-05-30 10:10:00,75.5,67.0,30.03,SSW,203,1.0,4.0,76,0.00,,,0.00,77,weatherlink.com 1.10,2013-05-30 14:10:00,
2013-05-30 10:25:00,76.3,68.0,30.03,SW,214,0.0,8.0,76,0.00,,,0.00,81,weatherlink.com 1.10,2013-05-30 14:25:00,
2013-05-30 10:40:00,77.1,69.0,30.02,SSW,209,2.0,6.0,75,0.00,,,0.00,309,weatherlink.com 1.10,2013-05-30 14:40:00,
2013-05-30 10:55:00,78.4,69.0,30.02,SSW,202,1.0,5.0,72,0.00,,,0.00,714,weatherlink.com 1.10,2013-05-30 14:55:00,
2013-05-30 11:10:00,79.3,70.0,30.01,South,176,0.0,7.0,74,0.00,,,0.00,754,weatherlink.com 1.10,2013-05-30 15:10:00,
2013-05-30 11:25:00,79.8,70.0,30.01,SW,236,6.0,6.0,72,0.00,,,0.00,765,weatherlink.com 1.10,2013-05-30 15:25:00,
2013-05-30 11:40:00,80.2,71.0,30.02,WSW,249,4.0,6.0,73,0.00,,,0.00,752,weatherlink.com 1.10,2013-05-30 15:40:00,
2013-05-30 11:55:00,80.8,71.0,30.01,South,169,0.0,6.0,72,0.00,,,0.00,842,weatherlink.com 1.10,2013-05-30 15:55:00,
2013-05-30 12:10:00,80.9,71.0,30.02,South,190,1.0,6.0,71,0.00,,,0.00,213,weatherlink.com 1.10,2013-05-30 16:10:00,
2013-05-30 12:25:00,81.3,72.0,30.01,SW,223,2.0,6.0,74,0.00,,,0.00,320,weatherlink.com 1.10,2013-05-30 16:25:00,
2013-05-30 12:40:00,82.5,71.0,30.01,WSW,245,1.0,5.0,68,0.00,,,0.00,1106,weatherlink.com 1.10,2013-05-30 16:40:00,
2013-05-30 12:55:00,82.7,71.0,30.01,South,171,1.0,7.0,68,0.00,,,0.00,902,weatherlink.com 1.10,2013-05-30 16:55:00,
2013-05-30 13:10:00,82.5,69.0,30.01,SW,223,1.0,5.0,64,0.00,,,0.00,390,weatherlink.com 1.10,2013-05-30 17:10:00,
2013-05-30 13:25:00,82.0,71.0,30.00,WNW,288,1.0,6.0,70,0.00,,,0.00,983,weatherlink.com 1.10,2013-05-30 17:25:00,
2013-05-30 13:40:00,84.0,71.0,30.00,NE,48,1.0,6.0,64,0.00,,,0.00,1085,weatherlink.com 1.10,2013-05-30 17:40:00,
2013-05-30 13:55:00,84.8,71.0,29.99,SSW,206,1.0,5.0,63,0.00,,,0.00,450,weatherlink.com 1.10,2013-05-30 17:55:00,
2013-05-30 14:10:00,84.4,71.0,29.99,SSE,167,1.0,4.0,65,0.00,,,0.00,888,weatherlink.com 1.10,2013-05-30 18:10:00,
2013-05-30 14:25:00,84.7,70.0,29.99,SSW,209,2.0,5.0,62,0.00,,,0.00,898,weatherlink.com 1.10,2013-05-30 18:25:00,
2013-05-30 14:40:00,84.8,72.0,29.98,WSW,247,5.0,5.0,66,0.00,,,0.00,921,weatherlink.com 1.10,2013-05-30 18:40:00,
2013-05-30 14:55:00,84.8,71.0,29.98,SSW,203,1.0,5.0,63,0.00,,,0.00,661,weatherlink.com 1.10,2013-05-30 18:55:00,
2013-05-30 15:10:00,82.8,70.0,29.98,South,169,1.0,5.0,66,0.00,,,0.00,302,weatherlink.com 1.10,2013-05-30 19:10:00,
2013-05-30 15:25:00,83.2,70.0,29.97,South,175,0.0,5.0,64,0.00,,,0.00,223,weatherlink.com 1.10,2013-05-30 19:25:00,
2013-05-30 15:40:00,80.1,70.0,29.97,SSE,159,2.0,4.0,72,0.02,,,0.02,155,weatherlink.com 1.10,2013-05-30 19:40:00,
2013-05-30 15:55:00,77.4,73.0,29.96,WSW,244,1.0,1.0,86,0.03,,,0.03,422,weatherlink.com 1.10,2013-05-30 19:55:00,
2013-05-30 16:10:00,79.3,76.0,29.95,WSW,244,1.0,2.0,89,0.03,,,0.03,909,weatherlink.com 1.10,2013-05-30 20:10:00,
2013-05-30 16:25:00,81.1,74.0,29.95,SW,214,1.0,4.0,79,0.03,,,0.03,394,weatherlink.com 1.10,2013-05-30 20:25:00,
2013-05-30 16:40:00,80.1,72.0,29.95,SW,235,0.0,3.0,76,0.01,,,0.03,408,weatherlink.com 1.10,2013-05-30 20:40:00,
2013-05-30 16:55:00,80.5,73.0,29.94,South,175,2.0,5.0,78,0.00,,,0.03,383,weatherlink.com 1.10,2013-05-30 20:55:00,
2013-05-30 17:11:00,81.3,73.0,29.93,WSW,245,3.0,3.0,77,0.00,,,0.03,677,weatherlink.com 1.10,2013-05-30 21:11:00,
2013-05-30 17:41:00,81.1,71.0,29.93,SSW,210,1.0,2.0,72,0.00,,,0.03,327,weatherlink.com 1.10,2013-05-30 21:41:00,
2013-05-30 17:56:00,82.1,72.0,29.92,SSW,203,1.0,3.0,72,0.00,,,0.03,547,weatherlink.com 1.10,2013-05-30 21:56:00,
2013-05-30 18:11:00,81.1,71.0,29.93,SW,214,0.0,5.0,71,0.00,,,0.03,540,weatherlink.com 1.10,2013-05-30 22:11:00,
2013-05-30 18:26:00,80.7,70.0,29.93,SSW,213,0.0,7.0,70,0.00,,,0.03,308,weatherlink.com 1.10,2013-05-30 22:26:00,
2013-05-30 18:41:00,80.5,70.0,29.93,South,172,1.0,4.0,71,0.00,,,0.03,367,weatherlink.com 1.10,2013-05-30 22:41:00,
2013-05-30 18:56:00,80.0,69.0,29.93,ENE,59,0.0,3.0,70,0.00,,,0.03,148,weatherlink.com 1.10,2013-05-30 22:56:00,
2013-05-30 19:11:00,78.7,70.0,29.93,SSW,200,0.0,4.0,75,0.00,,,0.03,244,weatherlink.com 1.10,2013-05-30 23:11:00,
2013-05-30 19:26:00,80.0,69.0,29.93,South,180,1.0,5.0,68,0.00,,,0.03,244,weatherlink.com 1.10,2013-05-30 23:26:00,
2013-05-30 19:41:00,80.2,70.0,29.93,SSW,196,1.0,3.0,70,0.00,,,0.03,227,weatherlink.com 1.10,2013-05-30 23:41:00,
2013-05-30 19:56:00,80.5,69.0,29.93,SSW,212,1.0,3.0,69,0.00,,,0.03,148,weatherlink.com 1.10,2013-05-30 23:56:00,
2013-05-30 20:11:00,80.1,69.0,29.93,SW,233,0.0,3.0,68,0.00,,,0.03,97,weatherlink.com 1.10,2013-05-31 00:11:00,
2013-05-30 20:26:00,78.7,68.0,29.92,WSW,240,0.0,2.0,70,0.00,,,0.03,33,weatherlink.com 1.10,2013-05-31 00:26:00,
2013-05-30 20:41:00,76.7,67.0,29.92,SW,229,0.0,2.0,71,0.00,,,0.03,7,weatherlink.com 1.10,2013-05-31 00:41:00,
2013-05-30 20:56:00,74.9,67.0,29.92,SW,229,0.0,1.0,75,0.00,,,0.03,0,weatherlink.com 1.10,2013-05-31 00:56:00,
2013-05-30 21:11:00,73.7,66.0,29.92,SW,229,0.0,1.0,77,0.00,,,0.03,0,weatherlink.com 1.10,2013-05-31 01:11:00,
2013-05-30 21:26:00,72.7,66.0,29.93,SW,229,0.0,1.0,79,0.00,,,0.03,0,weatherlink.com 1.10,2013-05-31 01:26:00,
2013-05-30 21:41:00,72.0,66.0,29.93,SW,229,0.0,1.0,81,0.00,,,0.03,0,weatherlink.com 1.10,2013-05-31 01:41:00,
2013-05-30 21:56:00,71.5,66.0,29.94,SW,229,0.0,1.0,82,0.00,,,0.03,0,weatherlink.com 1.10,2013-05-31 01:56:00,
2013-05-30 22:11:00,71.0,66.0,29.94,SW,229,0.0,1.0,83,0.00,,,0.03,0,weatherlink.com 1.10,2013-05-31 02:11:00,
2013-05-30 22:26:00,70.5,66.0,29.95,SW,229,0.0,1.0,84,0.00,,,0.03,0,weatherlink.com 1.10,2013-05-31 02:26:00,
2013-05-30 22:41:00,70.5,66.0,29.95,SW,229,0.0,0.0,84,0.00,,,0.03,0,weatherlink.com 1.10,2013-05-31 02:41:00,
2013-05-30 22:56:00,70.4,66.0,29.96,SW,229,0.0,1.0,85,0.00,,,0.03,0,weatherlink.com 1.10,2013-05-31 02:56:00,
2013-05-30 23:11:00,70.1,65.0,29.96,SW,229,1.0,1.0,85,0.00,,,0.03,0,weatherlink.com 1.10,2013-05-31 03:11:00,
2013-05-30 23:26:00,70.1,65.0,29.96,SW,229,0.0,1.0,85,0.00,,,0.03,0,weatherlink.com 1.10,2013-05-31 03:26:00,
2013-05-30 23:41:00,69.9,66.0,29.96,SW,229,0.0,1.0,86,0.00,,,0.03,0,weatherlink.com 1.10,2013-05-31 03:41:00,
2013-05-30 23:56:00,69.7,65.0,29.96,East,98,0.0,1.0,86,0.00,,,0.03,0,weatherlink.com 1.10,2013-05-31 03:56:00,